RLSO2: Arkansas River, Ralston, OK

                                SHEF ID:       RLSO2     Arkansas River at Ralston, OK
STATION TYPE:
Regulating: Stage = 16.00, Flow = 78729

PRECIP STAGE STAGE(2) RIV-FLOW AIR-TEMP BAT-LOAD
in ft ft cfs F volt
Ccp-Rev Ccp-Rev Ccp-Rev Ccp-Rev Ccp-Rev Ccp-Rev
(America/Chicago)
05/01 00:00 0.00 4.86 4.90 2479 54.32 12.74
05/01 01:00 0.00 4.85 4.88 2458 53.24 12.71
05/01 02:00 0.00 4.85 4.90 2458 52.70 12.69
05/01 03:00 0.00 4.86 4.90 2479 52.52 12.65
05/01 04:00 0.00 4.86 4.91 2479 51.62 12.62
05/01 05:00 0.00 4.87 4.89 2500 50.90 12.60
05/01 06:00 0.00 4.87 4.89 2500 50.00 12.58
05/01 07:00 0.00 4.86 4.91 2479 50.72 12.57
05/01 08:00 0.00 4.85 4.90 2458 58.10 12.60
05/01 09:00 0.00 4.87 4.90 2500 62.60 12.82
05/01 10:00 0.00 4.87 4.90 2500 66.74 13.24
05/01 11:00 0.00 4.85 4.89 2458 70.52 13.30
05/01 12:00 0.00 4.85 4.90 2458 71.24 13.15
05/01 13:00 0.00 4.86 4.89 2479 73.94 13.08
05/01 14:00 0.00 4.86 4.87 2479 75.56 13.05
05/01 15:00 0.00 4.86 4.83 2479 75.38 13.03
05/01 16:00 0.00 4.85 4.85 2458 74.30 12.98
05/01 17:00 0.00 4.83 4.83 2417 75.92 13.00
05/01 18:00 0.00 4.80 4.79 2357 77.72 12.96
05/01 19:00 0.00 4.77 4.77 2297 74.84 12.94
05/01 20:00 0.00 4.74 4.76 2238 68.90 12.90
05/01 21:00 0.00 4.71 4.72 2181 63.32 12.82
05/01 22:00 0.00 4.69 4.70 2143 59.54 12.79
05/01 23:00 0.00 4.67 4.69 2105 57.92 12.76
Data processed at Sat 02May2026 04:21 GMT

NOTICE: If you are parsing this page

Please convert to using our Data API. Starting early 2026 we will be migrating to: https://water.usace.army.mil with modern pages rendered in JavaScript. When this migration completes you will no longer be able to scrape this page! CWMSDataAPI (CDA)

Timeseries IDs (TSIDs)

TSIDs used from left to right in the data table
RALS.Precip-Inc.Total.1Hour.1Hour.Ccp-Rev
RALS.Stage.Inst.1Hour.0.Ccp-Rev
RALS.Stage-Alt.Inst.1Hour.0.Ccp-Rev
RALS.Flow.Inst.1Hour.0.Ccp-Rev
RALS.Temp-Air.Inst.1Hour.0.Ccp-Rev
RALS.Volt-Battery Load.Inst.1Hour.0.Ccp-Rev

                            

All information presented herein is the property of the government of the United States of America and may be revised or deleted at any time without prior notice. Dissemination of this information without the expressed written consent of the Public Affairs Office, Tulsa District U.S. Army Corps of Engineers is strictly prohibited. These data are gathered electronically and, as presented, have NOT undergone any form of quality control. These data are NOT guaranteed to be valid or correct.